sensor_id;sensor_type;location;lat;lon;timestamp;pressure;altitude;pressure_sealevel;temperature;humidity
15914;BME280;8055;51.930;8.840;2023-03-22T00:01:31;75878.50;;;-145.72;100.00
15914;BME280;8055;51.930;8.840;2023-03-22T00:03:57;75878.50;;;-145.72;100.00
15914;BME280;8055;51.930;8.840;2023-03-22T00:06:23;75874.34;;;-145.72;100.00
15914;BME280;8055;51.930;8.840;2023-03-22T00:08:50;75872.28;;;-145.72;100.00
15914;BME280;8055;51.930;8.840;2023-03-22T00:11:16;75866.06;;;-145.72;100.00
15914;BME280;8055;51.930;8.840;2023-03-22T00:13:42;75857.81;;;-145.72;100.00
15914;BME280;8055;51.930;8.840;2023-03-22T00:16:09;75855.72;;;-145.72;100.00
15914;BME280;8055;51.930;8.840;2023-03-22T00:18:35;75845.38;;;-145.72;100.00
15914;BME280;8055;51.930;8.840;2023-03-22T00:21:00;75841.25;;;-145.72;100.00
15914;BME280;8055;51.930;8.840;2023-03-22T00:23:27;75843.31;;;-145.72;100.00
15914;BME280;8055;51.930;8.840;2023-03-22T00:25:53;75832.97;;;-145.72;100.00
15914;BME280;8055;51.930;8.840;2023-03-22T00:28:19;75839.19;;;-145.72;100.00
15914;BME280;8055;51.930;8.840;2023-03-22T00:30:52;75820.56;;;-145.72;100.00
15914;BME280;8055;51.930;8.840;2023-03-22T00:33:18;75814.34;;;-145.72;100.00
15914;BME280;8055;51.930;8.840;2023-03-22T00:35:56;75812.28;;;-145.72;100.00
15914;BME280;8055;51.930;8.840;2023-03-22T00:38:22;75808.13;;;-145.72;100.00
15914;BME280;8055;51.930;8.840;2023-03-22T00:40:48;75806.06;;;-145.72;100.00
15914;BME280;8055;51.930;8.840;2023-03-22T00:43:14;75806.06;;;-145.72;100.00
15914;BME280;8055;51.930;8.840;2023-03-22T00:45:40;75804.00;;;-145.72;100.00
15914;BME280;8055;51.930;8.840;2023-03-22T00:48:09;75799.88;;;-145.72;100.00
15914;BME280;8055;51.930;8.840;2023-03-22T00:50:37;75795.72;;;-145.72;100.00
15914;BME280;8055;51.930;8.840;2023-03-22T00:53:03;75799.88;;;-145.72;100.00
15914;BME280;8055;51.930;8.840;2023-03-22T00:55:29;75791.59;;;-145.72;100.00
15914;BME280;8055;51.930;8.840;2023-03-22T00:57:55;75785.38;;;-145.72;100.00
15914;BME280;8055;51.930;8.840;2023-03-22T01:00:20;75785.38;;;-145.72;100.00
15914;BME280;8055;51.930;8.840;2023-03-22T01:02:46;75783.31;;;-145.72;100.00
15914;BME280;8055;51.930;8.840;2023-03-22T01:05:11;75770.88;;;-145.72;100.00
15914;BME280;8055;51.930;8.840;2023-03-22T01:07:43;75775.03;;;-145.72;100.00
15914;BME280;8055;51.930;8.840;2023-03-22T01:10:10;75783.31;;;-145.72;100.00
15914;BME280;8055;51.930;8.840;2023-03-22T01:12:36;75781.25;;;-145.72;100.00
15914;BME280;8055;51.930;8.840;2023-03-22T01:15:04;75772.97;;;-145.72;100.00
15914;BME280;8055;51.930;8.840;2023-03-22T01:17:29;75777.09;;;-145.72;100.00
15914;BME280;8055;51.930;8.840;2023-03-22T01:19:55;75772.97;;;-145.72;100.00
15914;BME280;8055;51.930;8.840;2023-03-22T01:22:20;75766.75;;;-145.72;100.00
15914;BME280;8055;51.930;8.840;2023-03-22T01:24:47;75758.47;;;-145.72;100.00
15914;BME280;8055;51.930;8.840;2023-03-22T01:27:13;75760.53;;;-145.72;100.00
15914;BME280;8055;51.930;8.840;2023-03-22T01:29:38;75758.47;;;-145.72;100.00
15914;BME280;8055;51.930;8.840;2023-03-22T01:32:04;75760.53;;;-145.72;100.00
15914;BME280;8055;51.930;8.840;2023-03-22T01:34:29;75750.19;;;-145.72;100.00
15914;BME280;8055;51.930;8.840;2023-03-22T01:36:55;75741.91;;;-145.72;100.00
15914;BME280;8055;51.930;8.840;2023-03-22T01:39:20;75729.50;;;-145.72;100.00
15914;BME280;8055;51.930;8.840;2023-03-22T01:41:46;75725.38;;;-145.72;100.00
15914;BME280;8055;51.930;8.840;2023-03-22T01:44:18;75733.66;;;-145.72;100.00
15914;BME280;8055;51.930;8.840;2023-03-22T01:46:44;75717.09;;;-145.72;100.00
15914;BME280;8055;51.930;8.840;2023-03-22T01:49:16;75727.44;;;-145.72;100.00
15914;BME280;8055;51.930;8.840;2023-03-22T01:51:45;75729.50;;;-145.72;100.00
15914;BME280;8055;51.930;8.840;2023-03-22T01:54:16;75733.66;;;-145.72;100.00
15914;BME280;8055;51.930;8.840;2023-03-22T01:56:43;75721.22;;;-145.72;100.00
15914;BME280;8055;51.930;8.840;2023-03-22T01:59:10;75719.16;;;-145.72;100.00
15914;BME280;8055;51.930;8.840;2023-03-22T02:01:36;75712.94;;;-145.72;100.00
15914;BME280;8055;51.930;8.840;2023-03-22T02:04:08;75721.22;;;-145.72;100.00
15914;BME280;8055;51.930;8.840;2023-03-22T02:06:37;75717.09;;;-145.72;100.00
15914;BME280;8055;51.930;8.840;2023-03-22T02:09:08;75712.94;;;-145.72;100.00
15914;BME280;8055;51.930;8.840;2023-03-22T02:25:26;75710.88;;;-145.72;100.00
15914;BME280;8055;51.930;8.840;2023-03-22T02:41:17;75696.41;;;-145.72;100.00
15914;BME280;8055;51.930;8.840;2023-03-22T02:44:03;75696.41;;;-145.72;100.00
15914;BME280;8055;51.930;8.840;2023-03-22T02:49:16;75698.47;;;-145.72;100.00
15914;BME280;8055;51.930;8.840;2023-03-22T02:52:17;75692.25;;;-145.72;100.00
15914;BME280;8055;51.930;8.840;2023-03-22T02:55:14;75688.13;;;-145.72;100.00
15914;BME280;8055;51.930;8.840;2023-03-22T03:00:15;75688.13;;;-145.72;100.00
15914;BME280;8055;51.930;8.840;2023-03-22T03:02:46;75681.91;;;-145.72;100.00
15914;BME280;8055;51.930;8.840;2023-03-22T03:05:15;75679.84;;;-145.72;100.00
15914;BME280;8055;51.930;8.840;2023-03-22T03:07:43;75675.72;;;-145.72;100.00
15914;BME280;8055;51.930;8.840;2023-03-22T03:10:13;75688.13;;;-145.72;100.00
15914;BME280;8055;51.930;8.840;2023-03-22T03:12:39;75688.13;;;-145.72;100.00
15914;BME280;8055;51.930;8.840;2023-03-22T03:15:20;75679.84;;;-145.72;100.00
15914;BME280;8055;51.930;8.840;2023-03-22T03:20:56;75679.84;;;-145.72;100.00
15914;BME280;8055;51.930;8.840;2023-03-22T03:23:31;75675.72;;;-145.72;100.00
15914;BME280;8055;51.930;8.840;2023-03-22T03:28:56;75679.84;;;-145.72;100.00
15914;BME280;8055;51.930;8.840;2023-03-22T03:31:26;75679.84;;;-145.72;100.00
15914;BME280;8055;51.930;8.840;2023-03-22T03:36:25;75679.84;;;-145.72;100.00
15914;BME280;8055;51.930;8.840;2023-03-22T03:38:52;75681.91;;;-145.72;100.00
15914;BME280;8055;51.930;8.840;2023-03-22T03:41:22;75675.72;;;-145.72;100.00
15914;BME280;8055;51.930;8.840;2023-03-22T03:43:49;75667.44;;;-145.72;100.00
15914;BME280;8055;51.930;8.840;2023-03-22T03:46:16;75667.44;;;-145.72;100.00
15914;BME280;8055;51.930;8.840;2023-03-22T03:48:45;75671.56;;;-145.72;100.00
15914;BME280;8055;51.930;8.840;2023-03-22T03:51:11;75665.38;;;-145.72;100.00
15914;BME280;8055;51.930;8.840;2023-03-22T03:53:37;75669.50;;;-145.72;100.00
15914;BME280;8055;51.930;8.840;2023-03-22T03:56:02;75679.84;;;-145.72;100.00
15914;BME280;8055;51.930;8.840;2023-03-22T03:58:28;75675.72;;;-145.72;100.00
15914;BME280;8055;51.930;8.840;2023-03-22T04:00:55;75677.78;;;-145.72;100.00
15914;BME280;8055;51.930;8.840;2023-03-22T04:03:20;75677.78;;;-145.72;100.00
15914;BME280;8055;51.930;8.840;2023-03-22T04:05:46;75665.38;;;-145.72;100.00
15914;BME280;8055;51.930;8.840;2023-03-22T04:08:12;75675.72;;;-145.72;100.00
15914;BME280;8055;51.930;8.840;2023-03-22T04:10:37;75667.44;;;-145.72;100.00
15914;BME280;8055;51.930;8.840;2023-03-22T04:13:03;75667.44;;;-145.72;100.00
15914;BME280;8055;51.930;8.840;2023-03-22T04:15:28;75665.38;;;-145.72;100.00
15914;BME280;8055;51.930;8.840;2023-03-22T04:17:54;75659.16;;;-145.72;100.00
15914;BME280;8055;51.930;8.840;2023-03-22T04:20:19;75657.09;;;-145.72;100.00
15914;BME280;8055;51.930;8.840;2023-03-22T04:22:45;75650.88;;;-145.72;100.00
15914;BME280;8055;51.930;8.840;2023-03-22T04:25:13;75652.94;;;-145.72;100.00
15914;BME280;8055;51.930;8.840;2023-03-22T04:27:42;75652.94;;;-145.72;100.00
15914;BME280;8055;51.930;8.840;2023-03-22T04:30:11;75659.16;;;-145.72;100.00
15914;BME280;8055;51.930;8.840;2023-03-22T04:32:48;75655.03;;;-145.72;100.00
15914;BME280;8055;51.930;8.840;2023-03-22T04:35:14;75652.94;;;-145.72;100.00
15914;BME280;8055;51.930;8.840;2023-03-22T04:37:40;75655.03;;;-145.72;100.00
15914;BME280;8055;51.930;8.840;2023-03-22T04:40:07;75663.28;;;-145.72;100.00
15914;BME280;8055;51.930;8.840;2023-03-22T04:42:34;75663.28;;;-145.72;100.00
15914;BME280;8055;51.930;8.840;2023-03-22T04:44:59;75655.03;;;-145.72;100.00
15914;BME280;8055;51.930;8.840;2023-03-22T04:47:27;75663.28;;;-145.72;100.00
15914;BME280;8055;51.930;8.840;2023-03-22T04:49:52;75646.75;;;-145.72;100.00
15914;BME280;8055;51.930;8.840;2023-03-22T04:52:18;75659.16;;;-145.72;100.00
15914;BME280;8055;51.930;8.840;2023-03-22T04:54:43;75655.03;;;-145.72;100.00
15914;BME280;8055;51.930;8.840;2023-03-22T04:57:09;75646.75;;;-145.72;100.00
15914;BME280;8055;51.930;8.840;2023-03-22T04:59:34;75648.81;;;-145.72;100.00
15914;BME280;8055;51.930;8.840;2023-03-22T05:01:59;75644.66;;;-145.72;100.00
15914;BME280;8055;51.930;8.840;2023-03-22T05:04:25;75648.81;;;-145.72;100.00
15914;BME280;8055;51.930;8.840;2023-03-22T05:06:51;75640.53;;;-145.72;100.00
15914;BME280;8055;51.930;8.840;2023-03-22T05:09:17;75644.66;;;-145.72;100.00
15914;BME280;8055;51.930;8.840;2023-03-22T05:11:42;75638.47;;;-145.72;100.00
15914;BME280;8055;51.930;8.840;2023-03-22T05:14:08;75644.66;;;-145.72;100.00
15914;BME280;8055;51.930;8.840;2023-03-22T05:16:34;75646.75;;;-145.72;100.00
15914;BME280;8055;51.930;8.840;2023-03-22T05:19:00;75640.53;;;-145.72;100.00
15914;BME280;8055;51.930;8.840;2023-03-22T05:21:28;75644.66;;;-145.72;100.00
15914;BME280;8055;51.930;8.840;2023-03-22T05:23:55;75646.75;;;-145.72;100.00
15914;BME280;8055;51.930;8.840;2023-03-22T05:26:23;75648.81;;;-145.72;100.00
15914;BME280;8055;51.930;8.840;2023-03-22T05:28:53;75638.47;;;-145.72;100.00
15914;BME280;8055;51.930;8.840;2023-03-22T05:31:20;75636.41;;;-145.72;100.00
15914;BME280;8055;51.930;8.840;2023-03-22T05:33:47;75642.59;;;-145.72;100.00
15914;BME280;8055;51.930;8.840;2023-03-22T05:36:12;75634.31;;;-145.72;100.00
15914;BME280;8055;51.930;8.840;2023-03-22T05:38:38;75632.25;;;-145.72;100.00
15914;BME280;8055;51.930;8.840;2023-03-22T05:41:04;75634.31;;;-145.72;100.00
15914;BME280;8055;51.930;8.840;2023-03-22T05:43:29;75632.25;;;-145.72;100.00
15914;BME280;8055;51.930;8.840;2023-03-22T05:45:54;75621.91;;;-145.72;100.00
15914;BME280;8055;51.930;8.840;2023-03-22T05:48:20;75628.13;;;-145.72;100.00
15914;BME280;8055;51.930;8.840;2023-03-22T05:50:45;75621.91;;;-145.72;100.00
15914;BME280;8055;51.930;8.840;2023-03-22T05:53:11;75613.63;;;-145.72;100.00
15914;BME280;8055;51.930;8.840;2023-03-22T05:55:36;75626.06;;;-145.72;100.00
15914;BME280;8055;51.930;8.840;2023-03-22T05:58:02;75619.84;;;-145.72;100.00
15914;BME280;8055;51.930;8.840;2023-03-22T06:00:30;75623.97;;;-145.72;100.00
15914;BME280;8055;51.930;8.840;2023-03-22T06:03:00;75623.97;;;-145.72;100.00
15914;BME280;8055;51.930;8.840;2023-03-22T06:05:29;75630.19;;;-145.72;100.00
15914;BME280;8055;51.930;8.840;2023-03-22T06:07:56;75621.91;;;-145.72;100.00
15914;BME280;8055;51.930;8.840;2023-03-22T06:10:21;75626.06;;;-145.72;100.00
15914;BME280;8055;51.930;8.840;2023-03-22T06:12:48;75630.19;;;-145.72;100.00
15914;BME280;8055;51.930;8.840;2023-03-22T06:15:14;75621.91;;;-145.72;100.00
15914;BME280;8055;51.930;8.840;2023-03-22T06:17:39;75623.97;;;-145.72;100.00
15914;BME280;8055;51.930;8.840;2023-03-22T06:20:06;75609.50;;;-145.72;100.00
15914;BME280;8055;51.930;8.840;2023-03-22T06:22:36;75609.50;;;-145.72;100.00
15914;BME280;8055;51.930;8.840;2023-03-22T06:25:02;75605.34;;;-145.72;100.00
15914;BME280;8055;51.930;8.840;2023-03-22T06:27:28;75592.94;;;-145.72;100.00
15914;BME280;8055;51.930;8.840;2023-03-22T06:29:53;75597.09;;;-145.72;100.00
15914;BME280;8055;51.930;8.840;2023-03-22T06:32:20;75580.53;;;-145.72;100.00
15914;BME280;8055;51.930;8.840;2023-03-22T06:34:51;75576.38;;;-145.72;100.00
15914;BME280;8055;51.930;8.840;2023-03-22T06:37:16;75570.19;;;-145.72;100.00
15914;BME280;8055;51.930;8.840;2023-03-22T06:39:42;75553.63;;;-145.72;100.00
15914;BME280;8055;51.930;8.840;2023-03-22T06:42:08;75549.50;;;-145.72;100.00
15914;BME280;8055;51.930;8.840;2023-03-22T06:44:33;75541.22;;;-145.72;100.00
15914;BME280;8055;51.930;8.840;2023-03-22T06:46:59;75526.72;;;-145.72;100.00
15914;BME280;8055;51.930;8.840;2023-03-22T06:49:24;75526.72;;;-145.72;100.00
15914;BME280;8055;51.930;8.840;2023-03-22T06:51:50;75520.53;;;-145.72;100.00
15914;BME280;8055;51.930;8.840;2023-03-22T06:54:16;75512.25;;;-145.72;100.00
15914;BME280;8055;51.930;8.840;2023-03-22T06:56:41;75503.97;;;-145.72;100.00
15914;BME280;8055;51.930;8.840;2023-03-22T06:59:07;75495.69;;;-145.72;100.00
15914;BME280;8055;51.930;8.840;2023-03-22T07:01:32;75485.34;;;-145.72;100.00
15914;BME280;8055;51.930;8.840;2023-03-22T07:03:57;75487.41;;;-145.72;100.00
15914;BME280;8055;51.930;8.840;2023-03-22T07:06:23;75466.72;;;-145.72;100.00
15914;BME280;8055;51.930;8.840;2023-03-22T07:08:49;75452.25;;;-145.72;100.00
15914;BME280;8055;51.930;8.840;2023-03-22T07:11:14;75448.09;;;-145.72;100.00
15914;BME280;8055;51.930;8.840;2023-03-22T07:13:40;75443.97;;;-145.72;100.00
15914;BME280;8055;51.930;8.840;2023-03-22T07:16:06;75450.19;;;-145.72;100.00
15914;BME280;8055;51.930;8.840;2023-03-22T07:18:32;75454.31;;;-145.72;100.00
15914;BME280;8055;51.930;8.840;2023-03-22T07:20:57;75448.09;;;-145.72;100.00
15914;BME280;8055;51.930;8.840;2023-03-22T07:23:22;75450.19;;;-145.72;100.00
15914;BME280;8055;51.930;8.840;2023-03-22T07:25:48;75452.25;;;-145.72;100.00
15914;BME280;8055;51.930;8.840;2023-03-22T07:28:14;75437.75;;;-145.72;100.00
15914;BME280;8055;51.930;8.840;2023-03-22T07:30:40;75433.63;;;-145.72;100.00
15914;BME280;8055;51.930;8.840;2023-03-22T07:33:08;75441.91;;;-145.72;100.00
15914;BME280;8055;51.930;8.840;2023-03-22T07:35:34;75435.69;;;-145.72;100.00
15914;BME280;8055;51.930;8.840;2023-03-22T07:38:01;75425.34;;;-145.72;100.00
15914;BME280;8055;51.930;8.840;2023-03-22T07:40:28;75423.28;;;-145.72;100.00
15914;BME280;8055;51.930;8.840;2023-03-22T07:42:53;75415.00;;;-145.72;100.00
15914;BME280;8055;51.930;8.840;2023-03-22T07:45:20;75406.72;;;-145.72;100.00
15914;BME280;8055;51.930;8.840;2023-03-22T07:47:45;75404.66;;;-145.72;100.00
15914;BME280;8055;51.930;8.840;2023-03-22T07:50:11;75400.50;;;-145.72;100.00
15914;BME280;8055;51.930;8.840;2023-03-22T07:52:40;75388.09;;;-145.72;100.00
15914;BME280;8055;51.930;8.840;2023-03-22T07:55:07;75373.63;;;-145.72;100.00
15914;BME280;8055;51.930;8.840;2023-03-22T07:57:34;75383.97;;;-145.72;100.00
15914;BME280;8055;51.930;8.840;2023-03-22T08:00:00;75381.91;;;-145.72;100.00
15914;BME280;8055;51.930;8.840;2023-03-22T08:02:25;75377.75;;;-145.72;100.00
15914;BME280;8055;51.930;8.840;2023-03-22T08:04:51;75379.81;;;-145.72;100.00
15914;BME280;8055;51.930;8.840;2023-03-22T08:07:17;75371.56;;;-145.72;100.00
15914;BME280;8055;51.930;8.840;2023-03-22T08:09:43;75367.41;;;-145.72;100.00
15914;BME280;8055;51.930;8.840;2023-03-22T08:12:10;75367.41;;;-145.72;100.00
15914;BME280;8055;51.930;8.840;2023-03-22T08:14:35;75367.41;;;-145.72;100.00
15914;BME280;8055;51.930;8.840;2023-03-22T08:17:04;75361.22;;;-145.72;100.00
15914;BME280;8055;51.930;8.840;2023-03-22T08:19:31;75361.22;;;-145.72;100.00
15914;BME280;8055;51.930;8.840;2023-03-22T08:21:57;75359.13;;;-145.72;100.00
15914;BME280;8055;51.930;8.840;2023-03-22T08:24:23;75363.28;;;-145.72;100.00
15914;BME280;8055;51.930;8.840;2023-03-22T08:26:49;75357.06;;;-145.72;100.00
15914;BME280;8055;51.930;8.840;2023-03-22T08:29:15;75352.94;;;-145.72;100.00
15914;BME280;8055;51.930;8.840;2023-03-22T08:31:41;75334.31;;;-145.72;100.00
15914;BME280;8055;51.930;8.840;2023-03-22T08:34:06;75328.09;;;-145.72;100.00
15914;BME280;8055;51.930;8.840;2023-03-22T08:36:32;75326.03;;;-145.72;100.00
15914;BME280;8055;51.930;8.840;2023-03-22T08:38:57;75326.03;;;-145.72;100.00
15914;BME280;8055;51.930;8.840;2023-03-22T08:41:23;75323.97;;;-145.72;100.00
15914;BME280;8055;51.930;8.840;2023-03-22T08:43:48;75303.28;;;-145.72;100.00
15914;BME280;8055;51.930;8.840;2023-03-22T08:46:15;75290.84;;;-145.72;100.00
15914;BME280;8055;51.930;8.840;2023-03-22T08:48:40;75290.84;;;-145.72;100.00
15914;BME280;8055;51.930;8.840;2023-03-22T08:51:06;75313.63;;;-145.72;100.00
15914;BME280;8055;51.930;8.840;2023-03-22T08:53:31;75301.19;;;-145.72;100.00
15914;BME280;8055;51.930;8.840;2023-03-22T08:55:56;75297.06;;;-145.72;100.00
15914;BME280;8055;51.930;8.840;2023-03-22T08:58:26;75288.78;;;-145.72;100.00
15914;BME280;8055;51.930;8.840;2023-03-22T09:00:52;75297.06;;;-145.72;100.00
15914;BME280;8055;51.930;8.840;2023-03-22T09:03:18;75282.59;;;-145.72;100.00
15914;BME280;8055;51.930;8.840;2023-03-22T09:05:43;75284.66;;;-145.72;100.00
15914;BME280;8055;51.930;8.840;2023-03-22T09:08:09;75282.59;;;-145.72;100.00
15914;BME280;8055;51.930;8.840;2023-03-22T09:10:37;75278.44;;;-145.72;100.00
15914;BME280;8055;51.930;8.840;2023-03-22T09:13:03;75268.09;;;-145.72;100.00
15914;BME280;8055;51.930;8.840;2023-03-22T09:15:28;75261.91;;;-145.72;100.00
15914;BME280;8055;51.930;8.840;2023-03-22T09:17:53;75261.91;;;-145.72;100.00
15914;BME280;8055;51.930;8.840;2023-03-22T09:20:19;75251.56;;;-145.72;100.00
15914;BME280;8055;51.930;8.840;2023-03-22T09:22:49;75235.00;;;-145.72;100.00
15914;BME280;8055;51.930;8.840;2023-03-22T09:25:15;75201.91;;;-145.72;100.00
15914;BME280;8055;51.930;8.840;2023-03-22T09:27:40;75201.91;;;-145.72;100.00
15914;BME280;8055;51.930;8.840;2023-03-22T09:30:06;75181.22;;;-145.72;100.00
15914;BME280;8055;51.930;8.840;2023-03-22T09:32:32;75164.66;;;-145.72;100.00
15914;BME280;8055;51.930;8.840;2023-03-22T09:34:57;75146.03;;;-145.72;100.00
15914;BME280;8055;51.930;8.840;2023-03-22T09:37:24;75141.91;;;-145.72;100.00
15914;BME280;8055;51.930;8.840;2023-03-22T09:39:55;75143.97;;;-145.72;100.00
15914;BME280;8055;51.930;8.840;2023-03-22T09:42:31;75141.91;;;-145.72;100.00
15914;BME280;8055;51.930;8.840;2023-03-22T09:45:00;75143.97;;;-145.72;100.00
15914;BME280;8055;51.930;8.840;2023-03-22T09:47:48;75129.47;;;-145.72;100.00
15914;BME280;8055;51.930;8.840;2023-03-22T09:50:23;75137.75;;;-145.72;100.00
15914;BME280;8055;51.930;8.840;2023-03-22T09:52:51;75104.66;;;-145.72;100.00
15914;BME280;8055;51.930;8.840;2023-03-22T09:55:26;75110.88;;;-145.72;100.00
15914;BME280;8055;51.930;8.840;2023-03-22T09:58:04;75104.66;;;-145.72;100.00
15914;BME280;8055;51.930;8.840;2023-03-22T10:01:20;75100.53;;;-145.72;100.00
15914;BME280;8055;51.930;8.840;2023-03-22T10:09:08;75067.41;;;-145.72;100.00
15914;BME280;8055;51.930;8.840;2023-03-22T10:11:58;75088.09;;;-145.72;100.00
15914;BME280;8055;51.930;8.840;2023-03-22T10:14:36;75079.81;;;-145.72;100.00
15914;BME280;8055;51.930;8.840;2023-03-22T10:17:08;75081.91;;;-145.72;100.00
15914;BME280;8055;51.930;8.840;2023-03-22T10:19:47;75077.75;;;-145.72;100.00
15914;BME280;8055;51.930;8.840;2023-03-22T10:22:15;75057.06;;;-145.72;100.00
15914;BME280;8055;51.930;8.840;2023-03-22T10:24:44;75061.22;;;-145.72;100.00
15914;BME280;8055;51.930;8.840;2023-03-22T10:27:15;75069.47;;;-145.72;100.00
15914;BME280;8055;51.930;8.840;2023-03-22T10:29:45;75065.34;;;-145.72;100.00
15914;BME280;8055;51.930;8.840;2023-03-22T10:32:18;75067.41;;;-145.72;100.00
15914;BME280;8055;51.930;8.840;2023-03-22T10:34:44;75052.94;;;-145.72;100.00
15914;BME280;8055;51.930;8.840;2023-03-22T10:37:16;75044.66;;;-145.72;100.00
15914;BME280;8055;51.930;8.840;2023-03-22T10:39:46;75007.41;;;-145.72;100.00
15914;BME280;8055;51.930;8.840;2023-03-22T10:42:16;74986.72;;;-145.72;100.00
15914;BME280;8055;51.930;8.840;2023-03-22T10:44:46;74968.13;;;-145.72;100.00
15914;BME280;8055;51.930;8.840;2023-03-22T10:47:26;74953.63;;;-145.72;100.00
15914;BME280;8055;51.930;8.840;2023-03-22T10:49:54;74949.50;;;-145.72;100.00
15914;BME280;8055;51.930;8.840;2023-03-22T10:52:33;74935.00;;;-145.72;100.00
15914;BME280;8055;51.930;8.840;2023-03-22T10:55:03;74951.56;;;-145.72;100.00
15914;BME280;8055;51.930;8.840;2023-03-22T10:57:28;74980.53;;;-145.72;100.00
15914;BME280;8055;51.930;8.840;2023-03-22T10:59:57;74980.53;;;-145.72;100.00
15914;BME280;8055;51.930;8.840;2023-03-22T11:02:26;74997.06;;;-145.72;100.00
15914;BME280;8055;51.930;8.840;2023-03-22T11:04:55;75003.28;;;-145.72;100.00
15914;BME280;8055;51.930;8.840;2023-03-22T11:07:36;74997.06;;;-145.72;100.00
15914;BME280;8055;51.930;8.840;2023-03-22T11:12:45;74947.44;;;-145.72;100.00
15914;BME280;8055;51.930;8.840;2023-03-22T11:15:24;74924.66;;;-145.72;100.00
15914;BME280;8055;51.930;8.840;2023-03-22T11:17:53;74903.97;;;-145.72;100.00
15914;BME280;8055;51.930;8.840;2023-03-22T11:20:19;74891.56;;;-145.72;100.00
15914;BME280;8055;51.930;8.840;2023-03-22T11:22:46;74910.19;;;-145.72;100.00
15914;BME280;8055;51.930;8.840;2023-03-22T11:25:34;74918.47;;;-145.72;100.00
15914;BME280;8055;51.930;8.840;2023-03-22T11:30:30;74966.03;;;-145.72;100.00
15914;BME280;8055;51.930;8.840;2023-03-22T11:33:20;74953.63;;;-145.72;100.00
15914;BME280;8055;51.930;8.840;2023-03-22T11:35:52;74953.63;;;-145.72;100.00
15914;BME280;8055;51.930;8.840;2023-03-22T11:38:39;74953.63;;;-145.72;100.00
15914;BME280;8055;51.930;8.840;2023-03-22T11:41:18;74932.94;;;-145.72;100.00
15914;BME280;8055;51.930;8.840;2023-03-22T11:43:51;74930.88;;;-145.72;100.00
15914;BME280;8055;51.930;8.840;2023-03-22T11:46:17;74926.72;;;-145.72;100.00
15914;BME280;8055;51.930;8.840;2023-03-22T11:48:45;74910.19;;;-145.72;100.00
15914;BME280;8055;51.930;8.840;2023-03-22T11:51:13;74885.34;;;-145.72;100.00
15914;BME280;8055;51.930;8.840;2023-03-22T11:53:42;74875.00;;;-145.72;100.00
15914;BME280;8055;51.930;8.840;2023-03-22T11:56:11;74862.59;;;-145.72;100.00
15914;BME280;8055;51.930;8.840;2023-03-22T12:01:03;74856.41;;;-145.72;100.00
15914;BME280;8055;51.930;8.840;2023-03-22T12:03:34;74864.66;;;-145.72;100.00
15914;BME280;8055;51.930;8.840;2023-03-22T12:06:03;74856.41;;;-145.72;100.00
15914;BME280;8055;51.930;8.840;2023-03-22T12:08:41;74875.00;;;-145.72;100.00
15914;BME280;8055;51.930;8.840;2023-03-22T12:11:31;74901.91;;;-145.72;100.00
15914;BME280;8055;51.930;8.840;2023-03-22T12:14:36;74897.78;;;-145.72;100.00
15914;BME280;8055;51.930;8.840;2023-03-22T12:16:56;74883.28;;;-145.72;100.00
15914;BME280;8055;51.930;8.840;2023-03-22T12:22:10;74841.91;;;-145.72;100.00
15914;BME280;8055;51.930;8.840;2023-03-22T12:24:37;74848.13;;;-145.72;100.00
15914;BME280;8055;51.930;8.840;2023-03-22T12:27:11;74868.81;;;-145.72;100.00
15914;BME280;8055;51.930;8.840;2023-03-22T12:29:49;74875.00;;;-145.72;100.00
15914;BME280;8055;51.930;8.840;2023-03-22T12:32:23;74860.53;;;-145.72;100.00
15914;BME280;8055;51.930;8.840;2023-03-22T12:34:50;74881.22;;;-145.72;100.00
15914;BME280;8055;51.930;8.840;2023-03-22T12:37:27;74860.53;;;-145.72;100.00
15914;BME280;8055;51.930;8.840;2023-03-22T12:42:45;74846.06;;;-145.72;100.00
15914;BME280;8055;51.930;8.840;2023-03-22T12:45:21;74837.78;;;-145.72;100.00
15914;BME280;8055;51.930;8.840;2023-03-22T12:47:58;74821.22;;;-145.72;100.00
15914;BME280;8055;51.930;8.840;2023-03-22T12:50:33;74790.19;;;-145.72;100.00
15914;BME280;8055;51.930;8.840;2023-03-22T12:53:00;74794.34;;;-145.72;100.00
15914;BME280;8055;51.930;8.840;2023-03-22T12:55:36;74806.75;;;-145.72;100.00
15914;BME280;8055;51.930;8.840;2023-03-22T12:58:09;74817.09;;;-145.72;100.00
15914;BME280;8055;51.930;8.840;2023-03-22T13:00:41;74815.03;;;-145.72;100.00
15914;BME280;8055;51.930;8.840;2023-03-22T13:05:44;74835.72;;;-145.72;100.00
15914;BME280;8055;51.930;8.840;2023-03-22T13:08:10;74846.06;;;-145.72;100.00
15914;BME280;8055;51.930;8.840;2023-03-22T13:16:18;74848.13;;;-145.72;97.40
15914;BME280;8055;51.930;8.840;2023-03-22T13:21:16;74854.31;;;-145.72;99.77
15914;BME280;8055;51.930;8.840;2023-03-22T13:26:33;74877.09;;;-145.72;100.00
15914;BME280;8055;51.930;8.840;2023-03-22T13:29:08;74885.34;;;-145.72;100.00
15914;BME280;8055;51.930;8.840;2023-03-22T13:34:14;74895.69;;;-145.72;100.00
15914;BME280;8055;51.930;8.840;2023-03-22T13:36:48;74920.53;;;-145.72;100.00
15914;BME280;8055;51.930;8.840;2023-03-22T13:39:14;74939.16;;;-145.72;100.00
15914;BME280;8055;51.930;8.840;2023-03-22T13:41:44;74939.16;;;-145.72;100.00
15914;BME280;8055;51.930;8.840;2023-03-22T13:44:37;74949.50;;;-145.72;100.00
15914;BME280;8055;51.930;8.840;2023-03-22T13:47:08;74955.69;;;-145.72;100.00
15914;BME280;8055;51.930;8.840;2023-03-22T13:49:57;74986.72;;;-145.72;100.00
15914;BME280;8055;51.930;8.840;2023-03-22T13:52:33;74982.59;;;-145.72;100.00
15914;BME280;8055;51.930;8.840;2023-03-22T13:55:00;74992.94;;;-145.72;100.00
15914;BME280;8055;51.930;8.840;2023-03-22T13:57:38;75005.34;;;-145.72;100.00
15914;BME280;8055;51.930;8.840;2023-03-22T14:00:18;75007.41;;;-145.72;100.00
15914;BME280;8055;51.930;8.840;2023-03-22T14:02:44;75005.34;;;-145.72;100.00
15914;BME280;8055;51.930;8.840;2023-03-22T14:05:20;75007.41;;;-145.72;100.00